createdAt,value
2022-12-11T00:01:10.198Z,19.15
2022-12-11T00:03:38.427Z,20.15
2022-12-11T00:06:08.243Z,19.08
2022-12-11T00:08:36.940Z,17.98
2022-12-11T00:11:05.245Z,18.83
2022-12-11T00:13:33.277Z,18.65
2022-12-11T00:16:02.736Z,19.92
2022-12-11T00:18:30.853Z,17.77
2022-12-11T00:21:01.504Z,18.55
2022-12-11T00:23:29.816Z,18.15
2022-12-11T00:25:58.310Z,19.60
2022-12-11T00:28:28.861Z,19.67
2022-12-11T00:30:56.948Z,19.80
2022-12-11T00:33:28.441Z,18.55
2022-12-11T00:35:56.542Z,19.08
2022-12-11T00:38:24.650Z,19.75
2022-12-11T00:40:52.890Z,20.02
2022-12-11T00:43:20.915Z,19.02
2022-12-11T00:45:49.189Z,16.85
2022-12-11T00:48:17.368Z,18.83
2022-12-11T00:50:47.492Z,18.23
2022-12-11T00:53:15.567Z,17.60
2022-12-11T00:55:44.421Z,17.77
2022-12-11T00:58:13.214Z,18.65
2022-12-11T01:00:42.601Z,17.85
2022-12-11T01:03:11.279Z,17.27
2022-12-11T01:05:39.469Z,17.65
2022-12-11T01:08:09.242Z,18.75
2022-12-11T01:10:37.368Z,19.10
2022-12-11T01:13:07.502Z,17.17
2022-12-11T01:15:41.820Z,18.40
2022-12-11T01:18:11.221Z,18.05
2022-12-11T01:20:41.093Z,17.33
2022-12-11T01:23:13.553Z,19.45
2022-12-11T01:28:10.468Z,17.50
2022-12-11T01:30:38.802Z,19.40
2022-12-11T01:33:06.915Z,19.05
2022-12-11T01:35:35.186Z,18.23
2022-12-11T01:38:03.343Z,17.63
2022-12-11T01:40:32.882Z,16.33
2022-12-11T01:43:00.984Z,17.65
2022-12-11T01:45:42.052Z,19.35
2022-12-11T01:48:13.699Z,19.15
2022-12-11T01:50:46.213Z,22.33
2022-12-11T01:55:48.994Z,17.20
2022-12-11T01:58:19.327Z,18.80
2022-12-11T02:00:47.728Z,18.73
2022-12-11T02:03:15.982Z,18.38
2022-12-11T02:05:44.017Z,19.65
2022-12-11T02:08:12.710Z,17.90
2022-12-11T02:10:54.171Z,17.88
2022-12-11T02:13:29.538Z,17.58
2022-12-11T02:16:08.081Z,18.85
2022-12-11T02:18:40.980Z,17.67
2022-12-11T02:21:15.135Z,18.60
2022-12-11T02:24:02.006Z,17.50
2022-12-11T02:26:50.224Z,17.02
2022-12-11T02:29:24.206Z,18.70
2022-12-11T02:31:59.729Z,17.90
2022-12-11T02:34:33.518Z,17.98
2022-12-11T02:37:05.569Z,16.98
2022-12-11T02:39:37.673Z,18.35
2022-12-11T02:42:06.702Z,16.80
2022-12-11T02:44:37.025Z,18.58
2022-12-11T02:47:10.051Z,19.30
2022-12-11T02:49:40.292Z,18.40
2022-12-11T02:52:14.098Z,20.00
2022-12-11T02:54:45.101Z,18.10
2022-12-11T02:57:17.914Z,19.50
2022-12-11T02:59:47.929Z,18.75
2022-12-11T03:02:18.898Z,17.27
2022-12-11T03:04:48.084Z,18.75
2022-12-11T03:07:19.407Z,19.92
2022-12-11T03:09:49.198Z,19.27
2022-12-11T03:12:20.783Z,17.83
2022-12-11T03:14:51.312Z,17.00
2022-12-11T03:17:22.388Z,19.17
2022-12-11T03:19:56.615Z,17.42
2022-12-11T03:22:36.790Z,18.40
2022-12-11T03:25:11.292Z,17.83
2022-12-11T03:27:45.800Z,19.40
2022-12-11T03:30:18.851Z,19.13
2022-12-11T03:32:51.424Z,19.75
2022-12-11T03:35:23.406Z,18.27
2022-12-11T03:37:54.403Z,18.95
2022-12-11T03:40:25.783Z,18.67
2022-12-11T03:42:57.768Z,19.45
2022-12-11T03:45:29.938Z,19.38
2022-12-11T03:48:02.212Z,19.60
2022-12-11T03:50:33.362Z,20.13
2022-12-11T03:53:03.232Z,19.10
2022-12-11T03:55:33.985Z,17.77
2022-12-11T03:58:02.213Z,19.08
2022-12-11T04:00:31.782Z,18.60
2022-12-11T04:03:15.084Z,18.05
2022-12-11T04:05:44.873Z,17.48
2022-12-11T04:08:13.472Z,18.55
2022-12-11T04:10:42.353Z,19.73
2022-12-11T04:13:11.648Z,18.80
2022-12-11T04:15:40.979Z,20.15
2022-12-11T04:18:27.474Z,18.10
2022-12-11T04:21:13.306Z,17.67
2022-12-11T04:23:59.206Z,16.10
2022-12-11T04:26:27.421Z,18.13
2022-12-11T04:28:55.729Z,18.40
2022-12-11T04:31:25.207Z,19.00
2022-12-11T04:33:53.460Z,18.50
2022-12-11T04:36:21.534Z,18.98
2022-12-11T04:38:49.601Z,19.33
2022-12-11T04:41:18.425Z,18.20
2022-12-11T04:43:46.780Z,19.08
2022-12-11T04:46:16.845Z,19.95
2022-12-11T04:48:48.441Z,18.60
2022-12-11T04:51:18.778Z,18.50
2022-12-11T04:53:47.401Z,18.75
2022-12-11T04:56:16.897Z,19.02
2022-12-11T04:58:46.053Z,19.10
2022-12-11T05:01:15.476Z,19.65
2022-12-11T05:03:43.605Z,19.35
2022-12-11T05:06:13.554Z,17.08
2022-12-11T05:08:43.886Z,17.80
2022-12-11T05:11:14.923Z,17.48
2022-12-11T05:13:46.569Z,17.90
2022-12-11T05:16:16.745Z,17.92
2022-12-11T05:18:44.937Z,18.75
2022-12-11T05:21:16.079Z,18.05
2022-12-11T05:23:44.192Z,19.35
2022-12-11T05:26:15.411Z,19.67
2022-12-11T05:28:43.952Z,18.92
2022-12-11T05:31:14.665Z,19.40
2022-12-11T05:33:43.192Z,19.52
2022-12-11T05:36:17.732Z,17.80
2022-12-11T05:38:46.111Z,19.98
2022-12-11T05:41:15.337Z,19.70
2022-12-11T05:43:43.683Z,18.95
2022-12-11T05:46:14.214Z,18.33
2022-12-11T05:48:43.700Z,18.92
2022-12-11T05:51:12.431Z,18.50
2022-12-11T05:53:43.246Z,19.13
2022-12-11T05:56:14.063Z,18.00
2022-12-11T05:58:43.027Z,19.63
2022-12-11T06:01:12.886Z,17.45
2022-12-11T06:03:41.152Z,19.48
2022-12-11T06:06:09.702Z,19.35
2022-12-11T06:08:37.821Z,17.83
2022-12-11T06:11:08.250Z,17.48
2022-12-11T06:13:36.905Z,18.58
2022-12-11T06:16:06.763Z,18.98
2022-12-11T06:18:37.973Z,18.75
2022-12-11T06:21:13.681Z,17.27
2022-12-11T06:23:42.707Z,18.08
2022-12-11T06:26:12.795Z,18.17
2022-12-11T06:28:40.906Z,18.30
2022-12-11T06:31:09.481Z,15.98
2022-12-11T06:33:38.100Z,16.17
2022-12-11T06:36:08.387Z,16.85
2022-12-11T06:38:36.952Z,16.45
2022-12-11T06:41:07.213Z,16.08
2022-12-11T06:43:38.836Z,17.15
2022-12-11T06:46:07.249Z,16.67
2022-12-11T06:48:35.953Z,16.20
2022-12-11T06:51:06.914Z,15.18
2022-12-11T06:53:35.138Z,16.85
2022-12-11T06:56:05.211Z,17.38
2022-12-11T06:58:37.551Z,17.02
2022-12-11T07:01:06.665Z,17.15
2022-12-11T07:03:34.678Z,16.40
2022-12-11T07:06:06.360Z,16.70
2022-12-11T07:08:34.953Z,16.48
2022-12-11T07:11:06.731Z,15.27
2022-12-11T07:13:36.270Z,15.82
2022-12-11T07:16:10.798Z,16.23
2022-12-11T07:18:41.479Z,16.67
2022-12-11T07:21:12.944Z,14.85
2022-12-11T07:23:41.665Z,14.70
2022-12-11T07:26:11.923Z,15.32
2022-12-11T07:28:41.994Z,15.85
2022-12-11T07:31:11.485Z,15.45
2022-12-11T07:33:39.588Z,14.80
2022-12-11T07:36:10.188Z,14.65
2022-12-11T07:38:38.595Z,14.50
2022-12-11T07:41:08.544Z,14.60
2022-12-11T07:43:37.647Z,14.95
2022-12-11T07:46:09.626Z,13.75
2022-12-11T07:48:38.622Z,15.30
2022-12-11T07:51:11.592Z,14.52
2022-12-11T07:53:40.258Z,13.20
2022-12-11T07:56:08.820Z,13.52
2022-12-11T07:58:38.991Z,14.80
2022-12-11T08:01:13.049Z,14.05
2022-12-11T08:03:42.183Z,13.75
2022-12-11T08:06:10.747Z,14.70
2022-12-11T08:08:39.226Z,13.35
2022-12-11T08:11:08.867Z,11.63
2022-12-11T08:13:37.530Z,13.63
2022-12-11T08:16:06.213Z,12.38
2022-12-11T08:18:36.680Z,11.73
2022-12-11T08:21:07.390Z,13.13
2022-12-11T08:23:35.572Z,13.68
2022-12-11T08:26:04.700Z,13.10
2022-12-11T08:28:33.020Z,13.43
2022-12-11T08:31:01.420Z,14.55
2022-12-11T08:33:29.601Z,13.77
2022-12-11T08:35:59.114Z,13.95
2022-12-11T08:38:27.225Z,12.60
2022-12-11T08:40:55.561Z,14.20
2022-12-11T08:43:23.654Z,13.63
2022-12-11T08:45:51.756Z,13.45
2022-12-11T08:48:19.823Z,13.02
2022-12-11T08:50:47.943Z,12.20
2022-12-11T08:53:19.630Z,12.45
2022-12-11T08:55:47.672Z,13.10
2022-12-11T08:58:15.757Z,12.63
2022-12-11T09:00:44.032Z,13.32
2022-12-11T09:03:13.050Z,12.75
2022-12-11T09:05:41.193Z,11.70
2022-12-11T09:08:09.360Z,12.52
2022-12-11T09:10:38.852Z,12.45
2022-12-11T09:13:07.240Z,13.27
2022-12-11T09:15:36.214Z,12.60
2022-12-11T09:18:05.532Z,12.13
2022-12-11T09:20:33.633Z,12.13
2022-12-11T09:23:02.874Z,12.82
2022-12-11T09:25:31.085Z,11.43
2022-12-11T09:28:01.507Z,12.38
2022-12-11T09:30:29.857Z,13.57
2022-12-11T09:32:58.185Z,11.93
2022-12-11T09:35:26.446Z,12.60
2022-12-11T09:37:54.890Z,12.48
2022-12-11T09:40:23.569Z,11.98
2022-12-11T09:42:57.642Z,12.65
2022-12-11T09:45:27.281Z,13.18
2022-12-11T09:47:57.652Z,12.73
2022-12-11T09:50:28.772Z,13.07
2022-12-11T09:53:06.531Z,12.27
2022-12-11T09:55:44.384Z,12.40
2022-12-11T09:58:22.319Z,12.07
2022-12-11T10:00:59.070Z,11.93
2022-12-11T10:03:50.304Z,12.20
2022-12-11T10:06:25.324Z,12.10
2022-12-11T10:09:04.861Z,12.35
2022-12-11T10:11:51.583Z,11.75
2022-12-11T10:14:30.293Z,11.65
2022-12-11T10:17:04.073Z,12.13
2022-12-11T10:19:33.798Z,11.93
2022-12-11T10:22:03.603Z,11.57
2022-12-11T10:27:31.413Z,12.07
2022-12-11T10:30:06.921Z,12.10
2022-12-11T10:32:44.594Z,12.68
2022-12-11T10:35:21.042Z,12.85
2022-12-11T10:37:49.256Z,11.75
2022-12-11T10:40:19.472Z,13.15
2022-12-11T10:42:54.272Z,12.13
2022-12-11T10:45:22.393Z,12.40
2022-12-11T10:47:51.815Z,12.30
2022-12-11T10:50:25.920Z,12.35
2022-12-11T10:52:54.610Z,12.68
2022-12-11T10:55:26.454Z,13.13
2022-12-11T10:58:02.375Z,14.10
2022-12-11T11:00:35.572Z,15.23
2022-12-11T11:03:07.663Z,14.40
2022-12-11T11:05:38.489Z,14.10
2022-12-11T11:08:19.548Z,13.52
2022-12-11T11:10:55.471Z,14.38
2022-12-11T11:13:26.107Z,16.25
2022-12-11T11:16:01.347Z,15.90
2022-12-11T11:18:32.106Z,16.10
2022-12-11T11:21:04.380Z,15.73
2022-12-11T11:23:32.520Z,17.40
2022-12-11T11:26:03.155Z,17.17
2022-12-11T11:28:35.228Z,17.55
2022-12-11T11:31:07.552Z,16.98
2022-12-11T11:33:38.954Z,15.15
2022-12-11T11:36:08.827Z,15.70
2022-12-11T11:38:42.138Z,16.85
2022-12-11T11:41:18.109Z,16.75
2022-12-11T11:43:49.071Z,16.17
2022-12-11T11:46:21.474Z,14.75
2022-12-11T11:49:01.429Z,13.57
2022-12-11T11:51:38.801Z,13.40
2022-12-11T11:54:17.365Z,13.25
2022-12-11T11:56:45.982Z,13.75
2022-12-11T11:59:18.843Z,12.43
2022-12-11T12:01:47.451Z,13.48
2022-12-11T12:04:17.459Z,14.57
2022-12-11T12:07:01.919Z,12.40
2022-12-11T12:09:43.596Z,13.55
2022-12-11T12:12:28.573Z,13.35
2022-12-11T12:15:11.385Z,13.38
2022-12-11T12:17:55.426Z,12.30
2022-12-11T12:20:38.449Z,12.95
2022-12-11T12:23:36.489Z,12.95
2022-12-11T12:26:12.474Z,13.80
2022-12-11T12:28:51.937Z,13.00
2022-12-11T12:31:33.311Z,14.00
2022-12-11T12:34:11.333Z,14.98
2022-12-11T12:36:51.140Z,15.27
2022-12-11T12:39:29.262Z,13.80
2022-12-11T12:42:07.958Z,15.20
2022-12-11T12:44:43.476Z,13.82
2022-12-11T12:47:15.458Z,15.00
2022-12-11T12:49:47.002Z,14.20
2022-12-11T12:52:19.066Z,14.88
2022-12-11T12:55:03.971Z,14.48
2022-12-11T12:57:36.320Z,14.68
2022-12-11T13:00:11.063Z,14.73
2022-12-11T13:02:50.419Z,14.52
2022-12-11T13:05:23.848Z,15.05
2022-12-11T13:07:56.818Z,14.88
2022-12-11T13:10:32.176Z,15.90
2022-12-11T13:13:01.604Z,14.00
2022-12-11T13:15:39.040Z,13.73
2022-12-11T13:18:32.872Z,14.60
2022-12-11T13:21:01.494Z,14.15
2022-12-11T13:23:36.449Z,12.75
2022-12-11T13:26:06.104Z,13.23
2022-12-11T13:28:48.275Z,13.82
2022-12-11T13:31:33.990Z,13.25
2022-12-11T13:34:15.164Z,12.50
2022-12-11T13:36:49.196Z,12.38
2022-12-11T13:39:23.753Z,13.73
2022-12-11T13:41:56.047Z,13.95
2022-12-11T13:44:27.973Z,13.13
2022-12-11T13:46:59.469Z,13.73
2022-12-11T13:49:31.245Z,13.77
2022-12-11T13:52:01.197Z,13.40
2022-12-11T13:54:32.437Z,14.55
2022-12-11T13:57:16.401Z,13.85
2022-12-11T13:59:49.518Z,12.27
2022-12-11T14:02:22.745Z,13.32
2022-12-11T14:04:55.081Z,12.70
2022-12-11T14:07:29.165Z,13.10
2022-12-11T14:10:04.072Z,12.02
2022-12-11T14:12:33.561Z,12.10
2022-12-11T14:15:03.989Z,12.50
2022-12-11T14:17:35.540Z,11.68
2022-12-11T14:20:08.020Z,11.93
2022-12-11T14:25:21.896Z,11.38
2022-12-11T14:27:51.254Z,12.68
2022-12-11T14:30:24.535Z,14.15
2022-12-11T14:32:55.383Z,11.82
2022-12-11T14:35:29.574Z,12.15
2022-12-11T14:38:02.943Z,11.70
2022-12-11T14:40:37.309Z,11.52
2022-12-11T14:43:10.949Z,11.63
2022-12-11T14:45:41.573Z,12.15
2022-12-11T14:48:14.985Z,12.00
2022-12-11T14:50:47.571Z,12.98
2022-12-11T14:55:49.192Z,11.85
2022-12-11T14:58:21.846Z,12.25
2022-12-11T15:00:59.277Z,12.57
2022-12-11T15:03:33.588Z,13.68
2022-12-11T15:06:02.688Z,13.77
2022-12-11T15:08:32.808Z,14.35
2022-12-11T15:11:09.685Z,14.65
2022-12-11T15:13:41.442Z,14.32
2022-12-11T15:16:10.661Z,14.20
2022-12-11T15:18:42.891Z,14.00
2022-12-11T15:21:13.754Z,13.10
2022-12-11T15:23:52.171Z,12.05
2022-12-11T15:26:36.380Z,12.27
2022-12-11T15:29:22.915Z,12.40
2022-12-11T15:32:00.414Z,11.20
2022-12-11T15:34:34.572Z,13.00
2022-12-11T15:37:02.782Z,11.68
2022-12-11T15:39:33.031Z,11.38
2022-12-11T15:42:03.010Z,12.68
2022-12-11T15:44:31.048Z,13.32
2022-12-11T15:46:59.105Z,12.38
2022-12-11T15:49:27.120Z,13.70
2022-12-11T15:51:55.156Z,13.18
2022-12-11T15:54:23.241Z,12.20
2022-12-11T15:56:51.269Z,12.18
2022-12-11T15:59:20.926Z,12.82
2022-12-11T16:01:49.040Z,12.77
2022-12-11T16:04:19.452Z,13.00
2022-12-11T16:06:47.602Z,12.90
2022-12-11T16:09:15.662Z,15.15
2022-12-11T16:11:43.759Z,15.13
2022-12-11T16:14:11.783Z,15.77
2022-12-11T16:16:42.508Z,13.88
2022-12-11T16:19:13.130Z,14.70
2022-12-11T16:21:41.206Z,14.88
2022-12-11T16:24:09.348Z,15.68
2022-12-11T16:26:37.389Z,16.30
2022-12-11T16:29:06.117Z,15.38
2022-12-11T16:31:34.185Z,15.30
2022-12-11T16:34:03.694Z,15.02
2022-12-11T16:36:31.851Z,14.10
2022-12-11T16:38:59.892Z,15.65
2022-12-11T16:41:28.397Z,14.50
2022-12-11T16:43:56.471Z,14.93
2022-12-11T16:46:25.336Z,14.93
2022-12-11T16:48:53.520Z,14.48
2022-12-11T16:51:23.003Z,14.77
2022-12-11T16:53:51.024Z,14.80
2022-12-11T16:56:19.143Z,15.95
2022-12-11T16:58:48.329Z,13.55
2022-12-11T17:01:17.250Z,14.45
2022-12-11T17:03:45.742Z,14.18
2022-12-11T17:06:18.384Z,13.90
2022-12-11T17:08:48.368Z,14.68
2022-12-11T17:11:18.593Z,14.40
2022-12-11T17:13:46.972Z,14.60
2022-12-11T17:16:17.673Z,14.55
2022-12-11T17:18:45.777Z,13.77
2022-12-11T17:21:16.044Z,14.77
2022-12-11T17:23:44.149Z,14.10
2022-12-11T17:26:14.026Z,13.65
2022-12-11T17:28:44.355Z,15.40
2022-12-11T17:31:15.908Z,16.00
2022-12-11T17:33:44.776Z,13.27
2022-12-11T17:36:15.379Z,13.15
2022-12-11T17:38:43.569Z,14.02
2022-12-11T17:41:20.292Z,13.15
2022-12-11T17:43:50.839Z,13.05
2022-12-11T17:46:19.507Z,13.00
2022-12-11T17:48:47.676Z,13.52
2022-12-11T17:51:24.008Z,13.32
2022-12-11T17:53:53.135Z,13.95
2022-12-11T17:56:22.984Z,15.57
2022-12-11T17:58:51.164Z,14.43
2022-12-11T18:01:19.971Z,13.02
2022-12-11T18:03:48.280Z,13.35
2022-12-11T18:06:17.967Z,13.20
2022-12-11T18:08:48.811Z,13.60
2022-12-11T18:11:18.924Z,15.50
2022-12-11T18:13:49.732Z,13.77
2022-12-11T18:16:21.097Z,14.63
2022-12-11T18:18:50.422Z,14.98
2022-12-11T18:21:21.663Z,14.68
2022-12-11T18:23:51.895Z,15.15
2022-12-11T18:26:21.438Z,14.05
2022-12-11T18:28:52.160Z,13.90
2022-12-11T18:31:21.741Z,14.23
2022-12-11T18:33:50.507Z,13.57
2022-12-11T18:36:21.103Z,13.18
2022-12-11T18:38:49.886Z,14.05
2022-12-11T18:41:19.670Z,14.20
2022-12-11T18:43:48.215Z,13.32
2022-12-11T18:46:19.654Z,13.45
2022-12-11T18:48:49.413Z,13.35
2022-12-11T18:51:19.633Z,13.43
2022-12-11T18:53:48.026Z,13.45
2022-12-11T18:56:18.877Z,13.80
2022-12-11T18:58:47.906Z,13.15
2022-12-11T19:01:20.602Z,14.75
2022-12-11T19:03:52.744Z,14.52
2022-12-11T19:06:25.354Z,13.20
2022-12-11T19:08:53.739Z,13.33
2022-12-11T19:11:24.652Z,13.32
2022-12-11T19:13:53.859Z,13.05
2022-12-11T19:16:26.064Z,12.27
2022-12-11T19:18:54.326Z,12.93
2022-12-11T19:21:22.548Z,14.52
2022-12-11T19:23:50.865Z,12.27
2022-12-11T19:26:21.121Z,13.00
2022-12-11T19:28:51.234Z,13.32
2022-12-11T19:31:21.217Z,14.07
2022-12-11T19:33:51.292Z,14.02
2022-12-11T19:36:21.856Z,12.27
2022-12-11T19:38:59.292Z,13.07
2022-12-11T19:41:30.140Z,14.80
2022-12-11T19:43:59.969Z,14.55
2022-12-11T19:46:28.920Z,13.70
2022-12-11T19:48:59.712Z,13.13
2022-12-11T19:51:30.210Z,12.85
2022-12-11T19:53:58.645Z,13.10
2022-12-11T19:56:27.863Z,12.60
2022-12-11T19:58:55.957Z,12.00
2022-12-11T20:01:28.698Z,11.85
2022-12-11T20:04:00.717Z,13.02
2022-12-11T20:06:30.196Z,12.68
2022-12-11T20:08:59.312Z,13.35
2022-12-11T20:11:32.139Z,13.50
2022-12-11T20:14:00.391Z,12.13
2022-12-11T20:17:01.733Z,13.43
2022-12-11T20:19:22.658Z,13.73
2022-12-11T20:21:50.729Z,13.30
2022-12-11T20:24:19.013Z,14.13
2022-12-11T20:26:47.211Z,13.38
2022-12-11T20:29:16.036Z,13.63
2022-12-11T20:31:45.575Z,13.20
2022-12-11T20:34:14.068Z,14.30
2022-12-11T20:36:44.252Z,15.35
2022-12-11T20:39:12.433Z,14.05
2022-12-11T20:41:40.533Z,13.90
2022-12-11T20:44:08.816Z,14.05
2022-12-11T20:46:37.121Z,14.10
2022-12-11T20:49:09.921Z,14.48
2022-12-11T20:54:07.503Z,13.35
2022-12-11T20:56:36.211Z,15.23
2022-12-11T20:59:04.598Z,14.25
2022-12-11T21:01:35.048Z,16.40
2022-12-11T21:04:03.746Z,15.40
2022-12-11T21:06:34.093Z,14.95
2022-12-11T21:09:04.648Z,14.45
2022-12-11T21:11:34.137Z,14.65
2022-12-11T21:14:02.204Z,15.55
2022-12-11T21:16:30.742Z,15.80
2022-12-11T21:18:59.446Z,14.73
2022-12-11T21:21:27.698Z,14.95
2022-12-11T21:23:56.042Z,13.75
2022-12-11T21:26:24.273Z,14.23
2022-12-11T21:28:53.791Z,14.65
2022-12-11T21:31:21.914Z,14.82
2022-12-11T21:33:50.091Z,15.15
2022-12-11T21:36:20.924Z,14.20
2022-12-11T21:38:49.002Z,15.82
2022-12-11T21:41:19.358Z,14.90
2022-12-11T21:46:39.567Z,14.93
2022-12-11T21:49:08.349Z,14.90
2022-12-11T21:51:43.980Z,14.80
2022-12-11T21:54:17.216Z,15.63
2022-12-11T21:56:45.588Z,15.63
2022-12-11T21:59:14.108Z,15.38
2022-12-11T22:01:47.119Z,13.90
2022-12-11T22:04:16.971Z,15.23
2022-12-11T22:06:47.269Z,14.85
2022-12-11T22:09:16.378Z,16.30
2022-12-11T22:11:46.014Z,15.30
2022-12-11T22:14:14.744Z,15.88
2022-12-11T22:16:44.778Z,15.02
2022-12-11T22:19:13.560Z,15.88
2022-12-11T22:21:41.703Z,15.23
2022-12-11T22:24:10.118Z,15.73
2022-12-11T22:26:38.258Z,14.85
2022-12-11T22:29:06.306Z,16.15
2022-12-11T22:31:34.677Z,14.52
2022-12-11T22:34:04.115Z,15.05
2022-12-11T22:36:32.197Z,14.75
2022-12-11T22:39:02.031Z,15.02
2022-12-11T22:41:32.229Z,14.52
2022-12-11T22:44:01.032Z,15.57
2022-12-11T22:46:31.147Z,13.77
2022-12-11T22:48:59.406Z,14.55
2022-12-11T22:51:28.893Z,13.98
2022-12-11T22:53:57.010Z,15.07
2022-12-11T22:56:25.190Z,15.70
2022-12-11T22:58:53.246Z,14.20
2022-12-11T23:01:23.410Z,15.20
2022-12-11T23:03:52.047Z,14.18
2022-12-11T23:06:22.580Z,14.95
2022-12-11T23:08:52.588Z,13.77
2022-12-11T23:11:24.489Z,13.82
2022-12-11T23:13:53.256Z,13.40
2022-12-11T23:16:21.500Z,12.93
2022-12-11T23:18:49.611Z,13.63
2022-12-11T23:21:18.649Z,13.73
2022-12-11T23:23:46.689Z,15.18
2022-12-11T23:26:18.752Z,13.90
2022-12-11T23:29:15.146Z,13.63
2022-12-11T23:31:50.409Z,14.18
2022-12-11T23:34:18.787Z,13.85
2022-12-11T23:36:47.927Z,14.15
2022-12-11T23:39:16.460Z,15.00
2022-12-11T23:41:47.991Z,12.73
2022-12-11T23:44:16.040Z,13.83
2022-12-11T23:46:45.027Z,13.52
2022-12-11T23:49:13.118Z,13.43
2022-12-11T23:51:44.532Z,14.05
2022-12-11T23:54:12.871Z,13.57
2022-12-11T23:56:40.957Z,15.07
2022-12-11T23:59:13.187Z,14.32
